Time;durP1;ratioP1;P1;durP2;ratioP2;P2;SDS_P1;SDS_P2;PMS_P1;PMS_P2;Temp;Humidity;BMP_temperature;BMP_pressure;BME280_temperature;BME280_humidity;BME280_pressure;Samples;Min_cycle;Max_cycle;Signal;HPM_P1;HPM_P2
2021/12/02 00:00:10;;;;;;;2.97;1.67;;;;;;;-144.99;100.00;57660.31;347695;28;1066;-68
2021/12/02 00:00:22;;;;;;;3.90;2.00;;;;;;;-144.99;100.00;57660.31;347234;28;1704;-68
2021/12/02 00:00:34;;;;;;;4.40;2.10;;;;;;;-144.99;100.00;57660.31;346930;28;2370;-68
2021/12/02 00:00:46;;;;;;;5.10;2.00;;;;;;;-144.99;100.00;57660.31;347786;28;1088;-68
2021/12/02 00:00:59;;;;;;;4.93;2.20;;;;;;;-144.99;100.00;57660.31;347618;28;1519;-68
2021/12/02 00:01:15;;;;;;;4.95;2.35;;;;;;;-144.99;100.00;57660.31;347725;28;1074;-68
2021/12/02 00:01:27;;;;;;;5.97;2.38;;;;;;;-144.99;100.00;57660.31;347225;28;1576;-68
2021/12/02 00:01:39;;;;;;;6.22;2.40;;;;;;;-144.99;100.00;57660.31;347990;28;1283;-68
2021/12/02 00:01:51;;;;;;;4.90;2.35;;;;;;;-144.99;100.00;57660.31;347614;28;1199;-68
2021/12/02 00:02:06;;;;;;;4.93;2.33;;;;;;;-144.99;100.00;57660.31;347349;28;1471;-68
2021/12/02 00:02:23;;;;;;;4.13;2.13;;;;;;;-144.99;100.00;57660.31;347853;28;1041;-67
2021/12/02 00:02:37;;;;;;;4.68;2.00;;;;;;;-144.99;100.00;57660.31;347789;28;1791;-67
2021/12/02 00:02:49;;;;;;;5.15;1.90;;;;;;;-144.99;100.00;57660.31;346775;28;1344;-67
2021/12/02 00:03:04;;;;;;;4.30;1.80;;;;;;;-144.99;100.00;57660.31;347157;28;1565;-67
2021/12/02 00:03:16;;;;;;;3.13;1.90;;;;;;;-144.99;100.00;57660.31;348001;28;2075;-67
2021/12/02 00:03:29;;;;;;;3.15;1.90;;;;;;;-144.99;100.00;57660.31;349153;28;1182;-67
2021/12/02 00:03:42;;;;;;;3.40;1.90;;;;;;;-144.99;100.00;57660.31;348076;28;2295;-67
2021/12/02 00:03:55;;;;;;;4.15;1.92;;;;;;;-144.99;100.00;57660.31;346716;28;1853;-67
2021/12/02 00:04:07;;;;;;;3.88;2.00;;;;;;;-144.99;100.00;57660.31;347146;28;1589;-67
2021/12/02 00:04:19;;;;;;;4.20;2.00;;;;;;;-144.99;100.00;57660.31;347302;28;1059;-68
2021/12/02 00:04:33;;;;;;;3.83;1.92;;;;;;;-144.99;100.00;57660.31;347592;28;1320;-68
2021/12/02 00:04:45;;;;;;;4.07;2.08;;;;;;;-144.99;100.00;57660.31;347449;28;1032;-68
2021/12/02 00:04:57;;;;;;;3.58;2.10;;;;;;;-144.99;100.00;57660.31;347632;28;1023;-68
2021/12/02 00:05:09;;;;;;;2.85;2.00;;;;;;;-144.99;100.00;57660.31;346999;28;1701;-68
2021/12/02 00:05:22;;;;;;;2.72;1.80;;;;;;;-144.99;100.00;57660.31;347440;28;1220;-68
2021/12/02 00:05:34;;;;;;;3.53;1.90;;;;;;;-144.99;100.00;57660.31;347285;28;1242;-68
2021/12/02 00:05:46;;;;;;;4.28;2.05;;;;;;;-144.99;100.00;57660.31;347468;28;1091;-68
2021/12/02 00:05:58;;;;;;;5.15;2.10;;;;;;;-144.99;100.00;57660.31;347571;28;1531;-68
2021/12/02 00:06:12;;;;;;;5.45;2.10;;;;;;;-144.99;100.00;57660.31;347773;28;1292;-68
2021/12/02 00:06:24;;;;;;;4.68;2.20;;;;;;;-144.99;100.00;57660.31;347638;28;904;-68
2021/12/02 00:06:37;;;;;;;5.10;2.28;;;;;;;-144.99;100.00;57660.31;347584;28;1079;-68
2021/12/02 00:06:48;;;;;;;5.05;2.10;;;;;;;-144.99;100.00;57660.31;347274;28;2197;-68
2021/12/02 00:07:01;;;;;;;3.67;2.03;;;;;;;-144.99;100.00;57660.31;347554;28;2195;-68
2021/12/02 00:07:13;;;;;;;4.00;2.25;;;;;;;-144.99;100.00;57660.31;347722;28;1161;-68
2021/12/02 00:07:25;;;;;;;4.95;2.47;;;;;;;-144.99;100.00;57660.31;347693;28;1049;-68
2021/12/02 00:07:37;;;;;;;5.53;2.40;;;;;;;-144.99;100.00;57660.31;347421;28;1347;-68
2021/12/02 00:07:51;;;;;;;5.43;2.17;;;;;;;-144.99;100.00;57660.31;347903;28;1215;-68
2021/12/02 00:08:03;;;;;;;5.60;2.33;;;;;;;-144.99;100.00;57660.31;346727;28;2345;-68
2021/12/02 00:08:15;;;;;;;5.18;2.60;;;;;;;-144.99;100.00;57660.31;346329;28;1022;-68
2021/12/02 00:08:27;;;;;;;5.13;2.58;;;;;;;-144.99;100.00;57660.31;346458;28;1046;-68
2021/12/02 00:08:40;;;;;;;4.50;2.50;;;;;;;-144.99;100.00;57660.31;346248;28;1115;-68
2021/12/02 00:08:52;;;;;;;3.67;2.30;;;;;;;-144.99;100.00;57660.31;346293;28;1764;-68
2021/12/02 00:09:04;;;;;;;3.78;2.17;;;;;;;-144.99;100.00;57660.31;347290;28;1581;-68
2021/12/02 00:09:16;;;;;;;4.13;1.90;;;;;;;-144.99;100.00;57660.31;348205;28;731;-68
2021/12/02 00:09:29;;;;;;;5.00;2.28;;;;;;;-144.99;100.00;57660.31;347734;28;1102;-68
2021/12/02 00:09:41;;;;;;;4.93;2.45;;;;;;;-144.99;100.00;57660.31;347279;28;1055;-68
2021/12/02 00:09:55;;;;;;;4.25;2.42;;;;;;;-144.99;100.00;57660.31;347315;28;1115;-68
2021/12/02 00:10:07;;;;;;;4.75;2.20;;;;;;;-144.99;100.00;57660.31;348000;28;1861;-68
2021/12/02 00:10:19;;;;;;;5.20;2.10;;;;;;;-144.99;100.00;57660.31;346127;28;1050;-68
2021/12/02 00:10:32;;;;;;;4.93;2.13;;;;;;;-144.99;100.00;57660.31;345963;28;2583;-68
2021/12/02 00:10:44;;;;;;;3.50;2.00;;;;;;;-144.99;100.00;57660.31;347922;28;2099;-68
2021/12/02 00:10:55;;;;;;;4.55;2.10;;;;;;;-144.99;100.00;57660.31;347817;28;1223;-68
2021/12/02 00:11:08;;;;;;;4.93;2.10;;;;;;;-144.99;100.00;57660.31;347234;28;2434;-68
2021/12/02 00:11:21;;;;;;;5.15;2.20;;;;;;;-144.99;100.00;57660.31;347467;28;1452;-68
2021/12/02 00:11:33;;;;;;;3.88;2.13;;;;;;;-144.99;100.00;57660.31;347718;28;1019;-68
2021/12/02 00:11:45;;;;;;;4.45;2.00;;;;;;;-144.99;100.00;57660.31;347386;28;1101;-68
2021/12/02 00:11:57;;;;;;;4.45;1.92;;;;;;;-144.99;100.00;57660.31;347706;28;1171;-68
2021/12/02 00:12:09;;;;;;;5.28;2.00;;;;;;;-144.99;100.00;57660.31;347524;28;1906;-68
2021/12/02 00:12:21;;;;;;;4.97;2.00;;;;;;;-144.99;100.00;57660.31;347762;28;1190;-68
2021/12/02 00:12:33;;;;;;;4.93;2.17;;;;;;;-144.99;100.00;57660.31;347217;28;1649;-68
2021/12/02 00:12:45;;;;;;;4.57;2.30;;;;;;;-144.99;100.00;57660.31;347370;28;1298;-68
2021/12/02 00:12:59;;;;;;;4.82;2.40;;;;;;;-144.99;100.00;57660.31;347646;28;1277;-68
2021/12/02 00:13:12;;;;;;;4.13;2.13;;;;;;;-144.99;100.00;57660.31;347002;28;2249;-68
2021/12/02 00:13:26;;;;;;;3.45;1.92;;;;;;;-144.99;100.00;57660.31;347492;28;1261;-68
2021/12/02 00:14:06;;;;;;;4.57;2.20;;;;;;;-144.99;100.00;57660.31;347744;28;1476;-68
2021/12/02 00:14:24;;;;;;;4.22;1.90;;;;;;;-144.99;100.00;57660.31;347201;28;1960;-68
2021/12/02 00:14:41;;;;;;;4.47;1.90;;;;;;;-144.99;100.00;57660.31;347706;28;1198;-68
2021/12/02 00:14:54;;;;;;;3.72;1.85;;;;;;;-144.99;100.00;57660.31;347061;28;1833;-68
2021/12/02 00:15:10;;;;;;;4.18;2.00;;;;;;;-144.99;100.00;57660.31;347094;28;2086;-68
2021/12/02 00:15:25;;;;;;;5.68;2.10;;;;;;;-144.99;100.00;57660.31;347433;28;1872;-68
2021/12/02 00:16:25;;;;;;;4.53;2.05;;;;;;;-144.99;100.00;57660.31;347416;28;1291;-68
2021/12/02 00:17:26;;;;;;;5.00;2.38;;;;;;;-144.99;100.00;57660.31;343265;28;1868;-68
2021/12/02 00:17:40;;;;;;;3.90;2.10;;;;;;;-144.99;100.00;57660.31;343923;28;2055;-68
2021/12/02 00:17:57;;;;;;;3.75;1.98;;;;;;;-144.99;100.00;57660.31;344698;28;920;-68
2021/12/02 00:18:41;;;;;;;5.65;2.20;;;;;;;-144.99;100.00;57660.31;343569;28;1308;-68
2021/12/02 00:21:09;;;;;;;3.83;2.00;;;;;;;-144.99;100.00;57660.31;347178;28;1561;-67
2021/12/02 00:21:24;;;;;;;4.85;1.80;;;;;;;-144.99;100.00;57660.31;347489;28;1154;-67
2021/12/02 00:21:41;;;;;;;3.60;1.65;;;;;;;-144.99;100.00;57660.31;347488;28;1287;-67
2021/12/02 00:22:01;;;;;;;3.55;1.80;;;;;;;-144.99;100.00;57660.31;347686;28;1141;-67
2021/12/02 00:22:13;;;;;;;4.15;1.75;;;;;;;-144.99;100.00;57660.31;347342;28;1210;-68
2021/12/02 00:22:28;;;;;;;4.78;1.77;;;;;;;-144.99;100.00;57660.31;347673;28;1022;-68
2021/12/02 00:23:27;;;;;;;4.97;1.88;;;;;;;-144.99;100.00;57660.31;347396;28;1043;-68
2021/12/02 00:23:51;;;;;;;5.35;1.85;;;;;;;-144.99;100.00;57660.31;347554;28;1078;-67
2021/12/02 00:24:08;;;;;;;4.18;1.50;;;;;;;-144.99;100.00;57660.31;346774;28;2034;-67
2021/12/02 00:24:23;;;;;;;2.92;1.50;;;;;;;-144.99;100.00;57660.31;347429;28;2160;-67
2021/12/02 00:24:38;;;;;;;2.40;1.65;;;;;;;-144.99;100.00;57660.31;347711;28;1177;-67
2021/12/02 00:24:55;;;;;;;2.72;1.70;;;;;;;-144.99;100.00;57660.31;347670;28;1124;-67
2021/12/02 00:25:08;;;;;;;2.67;1.70;;;;;;;-144.99;100.00;57660.31;346071;28;1043;-67
2021/12/02 00:25:22;;;;;;;2.30;1.60;;;;;;;-144.99;100.00;57660.31;347036;28;871;-67
2021/12/02 00:25:35;;;;;;;2.75;1.63;;;;;;;-144.99;100.00;57660.31;346684;28;1764;-67
2021/12/02 00:25:47;;;;;;;4.20;1.90;;;;;;;-144.99;100.00;57660.31;347259;28;1074;-67
2021/12/02 00:26:03;;;;;;;3.83;1.83;;;;;;;-144.99;100.00;57660.31;347105;28;1058;-67
2021/12/02 00:26:18;;;;;;;3.40;1.60;;;;;;;-144.99;100.00;57660.31;347539;28;1117;-67
2021/12/02 00:26:32;;;;;;;3.97;1.65;;;;;;;-144.99;100.00;57660.31;347097;28;1905;-67
2021/12/02 00:26:46;;;;;;;2.78;1.52;;;;;;;-144.99;100.00;57660.31;347533;28;1031;-67
2021/12/02 00:27:00;;;;;;;3.28;1.63;;;;;;;-144.99;100.00;57660.31;347086;28;1667;-67
2021/12/02 00:27:14;;;;;;;3.30;1.63;;;;;;;-144.99;100.00;57660.31;345946;28;1243;-67
2021/12/02 00:27:28;;;;;;;2.53;1.50;;;;;;;-144.99;100.00;57660.31;345957;28;1058;-67
2021/12/02 00:27:41;;;;;;;2.55;1.63;;;;;;;-144.99;100.00;57660.31;346695;28;1470;-68
2021/12/02 00:27:55;;;;;;;3.55;1.88;;;;;;;-144.99;100.00;57660.31;347415;28;1072;-68
2021/12/02 00:28:07;;;;;;;4.28;1.90;;;;;;;-144.99;100.00;57660.31;346317;28;1050;-68
2021/12/02 00:28:20;;;;;;;3.60;2.00;;;;;;;-144.99;100.00;57660.31;346865;28;2165;-67
2021/12/02 00:28:32;;;;;;;3.05;1.88;;;;;;;-144.99;100.00;57660.31;347524;28;2156;-67
2021/12/02 00:28:49;;;;;;;5.45;1.92;;;;;;;-144.99;100.00;57660.31;347612;28;1109;-67
2021/12/02 00:29:04;;;;;;;5.15;2.00;;;;;;;-144.99;100.00;57660.31;346762;28;1478;-68
2021/12/02 00:29:20;;;;;;;3.22;1.70;;;;;;;-144.99;100.00;57660.31;347502;28;941;-68
2021/12/02 00:29:34;;;;;;;4.00;1.73;;;;;;;-144.99;100.00;57660.31;347466;28;1187;-68
2021/12/02 00:29:46;;;;;;;4.45;1.90;;;;;;;-144.99;100.00;57660.31;347731;28;1040;-68
2021/12/02 00:29:59;;;;;;;3.38;1.70;;;;;;;-144.99;100.00;57660.31;347136;28;1708;-68
2021/12/02 00:30:12;;;;;;;2.75;1.60;;;;;;;-144.99;100.00;57660.31;347696;28;1046;-68
2021/12/02 00:30:25;;;;;;;2.72;1.60;;;;;;;-144.99;100.00;57660.31;347345;28;1723;-68
2021/12/02 00:30:37;;;;;;;2.88;1.50;;;;;;;-144.99;100.00;57660.31;347511;28;1302;-68
2021/12/02 00:30:50;;;;;;;3.15;1.60;;;;;;;-144.99;100.00;57660.31;347557;28;1075;-68
2021/12/02 00:31:02;;;;;;;3.38;1.70;;;;;;;-144.99;100.00;57660.31;347332;28;1283;-68
2021/12/02 00:31:17;;;;;;;3.22;1.73;;;;;;;-144.99;100.00;57660.31;347476;28;1416;-68
2021/12/02 00:31:32;;;;;;;3.70;1.80;;;;;;;-144.99;100.00;57660.31;347024;28;929;-68
2021/12/02 00:31:47;;;;;;;3.45;1.95;;;;;;;-144.99;100.00;57660.31;347486;28;1191;-68
2021/12/02 00:32:03;;;;;;;2.95;1.90;;;;;;;-144.99;100.00;57660.31;346974;28;2244;-67
2021/12/02 00:32:15;;;;;;;3.25;1.80;;;;;;;-144.99;100.00;57660.31;347752;28;1310;-67
2021/12/02 00:32:29;;;;;;;3.53;1.77;;;;;;;-144.99;100.00;57660.31;347649;28;1196;-67
2021/12/02 00:32:43;;;;;;;4.00;1.50;;;;;;;-144.99;100.00;57660.31;347525;28;1995;-67
2021/12/02 00:32:56;;;;;;;3.70;1.42;;;;;;;-144.99;100.00;57660.31;347433;28;1392;-68
2021/12/02 00:33:08;;;;;;;3.15;1.77;;;;;;;-144.99;100.00;57660.31;346129;28;1296;-68
2021/12/02 00:33:22;;;;;;;2.63;1.90;;;;;;;-144.99;100.00;57660.31;346292;28;1481;-68
2021/12/02 00:33:34;;;;;;;3.00;1.88;;;;;;;-144.99;100.00;57660.31;345785;28;1007;-68
2021/12/02 00:33:49;;;;;;;4.05;1.90;;;;;;;-144.99;100.00;57660.31;346144;28;1052;-68
2021/12/02 00:34:06;;;;;;;4.90;1.90;;;;;;;-144.99;100.00;57660.31;346278;28;1922;-68
2021/12/02 00:34:19;;;;;;;3.35;1.45;;;;;;;-144.99;100.00;57660.31;347441;28;1137;-68
2021/12/02 00:34:31;;;;;;;3.55;1.50;;;;;;;-144.99;100.00;57660.31;347642;28;1282;-68
2021/12/02 00:34:45;;;;;;;3.83;1.50;;;;;;;-144.99;100.00;57660.31;347520;28;1265;-68
2021/12/02 00:34:58;;;;;;;2.55;1.50;;;;;;;-144.99;100.00;57660.31;347396;28;1281;-68
2021/12/02 00:35:11;;;;;;;3.72;1.60;;;;;;;-144.99;100.00;57660.31;347553;28;1288;-68
2021/12/02 00:35:24;;;;;;;3.85;1.55;;;;;;;-144.99;100.00;57660.31;347513;28;1270;-68
2021/12/02 00:35:36;;;;;;;3.20;1.60;;;;;;;-144.99;100.00;57660.31;347055;28;2105;-68
2021/12/02 00:35:49;;;;;;;2.70;1.60;;;;;;;-144.99;100.00;57660.31;347578;28;1168;-68
2021/12/02 00:36:02;;;;;;;2.50;1.50;;;;;;;-144.99;100.00;57660.31;346963;28;1516;-68
2021/12/02 00:36:19;;;;;;;3.30;1.75;;;;;;;-144.99;100.00;57660.31;346961;28;1326;-68
2021/12/02 00:36:32;;;;;;;4.50;1.77;;;;;;;-144.99;100.00;57660.31;347573;28;1078;-68
2021/12/02 00:36:45;;;;;;;3.80;1.48;;;;;;;-144.99;100.00;57660.31;347073;28;1987;-68
2021/12/02 00:36:59;;;;;;;3.42;1.60;;;;;;;-144.99;100.00;57660.31;346793;28;2023;-68
2021/12/02 00:37:12;;;;;;;2.33;1.50;;;;;;;-144.99;100.00;57660.31;346068;28;1022;-68
2021/12/02 00:37:26;;;;;;;2.42;1.50;;;;;;;-144.99;100.00;57660.31;345823;28;1091;-68
2021/12/02 00:37:38;;;;;;;2.63;1.60;;;;;;;-144.99;100.00;57660.31;346699;28;1956;-68
2021/12/02 00:37:51;;;;;;;3.28;1.70;;;;;;;-144.99;100.00;57660.31;347432;28;1069;-68
2021/12/02 00:38:03;;;;;;;2.78;1.50;;;;;;;-144.99;100.00;57660.31;347202;28;1591;-68
2021/12/02 00:38:18;;;;;;;2.85;1.45;;;;;;;-144.99;100.00;57660.31;346268;28;1098;-68
2021/12/02 00:38:30;;;;;;;4.10;1.60;;;;;;;-144.99;100.00;57660.31;346067;28;1119;-68
2021/12/02 00:38:44;;;;;;;3.88;1.60;;;;;;;-144.99;100.00;57660.31;346076;28;1043;-68
2021/12/02 00:38:57;;;;;;;3.53;1.70;;;;;;;-144.99;100.00;57660.31;347247;28;1991;-68
2021/12/02 00:39:16;;;;;;;3.05;1.70;;;;;;;-144.99;100.00;57660.31;347476;28;1731;-68
2021/12/02 00:39:29;;;;;;;4.30;1.73;;;;;;;-144.99;100.00;57660.31;346721;28;1535;-68
2021/12/02 00:39:41;;;;;;;4.38;1.88;;;;;;;-144.99;100.00;57660.31;347580;28;1297;-68
2021/12/02 00:39:54;;;;;;;4.28;1.80;;;;;;;-144.99;100.00;57660.31;347665;28;1092;-68
2021/12/02 00:40:07;;;;;;;4.28;1.67;;;;;;;-144.99;100.00;57660.31;347370;28;1637;-68
2021/12/02 00:40:19;;;;;;;3.35;1.60;;;;;;;-144.99;100.00;57660.31;347016;28;2330;-68
2021/12/02 00:40:34;;;;;;;3.20;1.85;;;;;;;-144.99;100.00;57660.31;347869;28;1009;-68
2021/12/02 00:40:47;;;;;;;2.85;1.92;;;;;;;-144.99;100.00;57660.31;347673;28;1284;-68
2021/12/02 00:40:59;;;;;;;2.42;1.77;;;;;;;-144.99;100.00;57660.31;347573;28;1167;-68
2021/12/02 00:41:12;;;;;;;2.38;1.70;;;;;;;-144.99;100.00;57660.31;347565;28;1074;-68
2021/12/02 00:41:27;;;;;;;2.63;1.65;;;;;;;-144.99;100.00;57660.31;347604;28;1297;-68
2021/12/02 00:41:39;;;;;;;2.20;1.42;;;;;;;-144.99;100.00;57660.31;347692;28;1303;-68
2021/12/02 00:41:52;;;;;;;1.88;1.40;;;;;;;-144.99;100.00;57660.31;347437;28;1226;-68
2021/12/02 00:42:04;;;;;;;2.40;1.60;;;;;;;-144.99;100.00;57660.31;347512;28;1163;-68
2021/12/02 00:42:17;;;;;;;3.08;1.70;;;;;;;-144.99;100.00;57660.31;347265;28;1615;-68
2021/12/02 00:42:29;;;;;;;2.78;1.70;;;;;;;-144.99;100.00;57660.31;347141;28;1899;-68
2021/12/02 00:42:42;;;;;;;2.97;1.70;;;;;;;-144.99;100.00;57660.31;347872;28;1057;-68
2021/12/02 00:42:58;;;;;;;3.33;2.10;;;;;;;-144.99;100.00;57660.31;347526;28;1496;-68
2021/12/02 00:43:10;;;;;;;3.75;2.00;;;;;;;-144.99;100.00;57660.31;347334;28;1405;-68
2021/12/02 00:43:22;;;;;;;3.95;1.67;;;;;;;-144.99;100.00;57660.31;346734;28;1881;-68
2021/12/02 00:43:35;;;;;;;4.28;1.80;;;;;;;-144.99;100.00;57660.31;346352;28;1118;-68
2021/12/02 00:43:49;;;;;;;4.57;1.73;;;;;;;-144.99;100.00;57660.31;347204;28;1398;-68
2021/12/02 00:44:01;;;;;;;4.70;1.58;;;;;;;-144.99;100.00;57660.31;347557;28;1446;-68
2021/12/02 00:44:15;;;;;;;4.22;1.48;;;;;;;-144.99;100.00;57660.31;347773;28;1031;-68
2021/12/02 00:44:29;;;;;;;4.97;2.92;;;;;;;-144.99;100.00;57660.31;347410;28;1096;-68
2021/12/02 00:44:41;;;;;;;5.07;3.13;;;;;;;-144.99;100.00;57660.31;347512;28;1079;-68
2021/12/02 00:44:57;;;;;;;3.90;1.73;;;;;;;-144.99;100.00;57660.31;347617;28;1055;-68
2021/12/02 00:45:09;;;;;;;2.65;1.50;;;;;;;-144.99;100.00;57660.31;346017;28;1491;-68
2021/12/02 00:45:21;;;;;;;2.90;1.63;;;;;;;-144.99;100.00;57660.31;346133;28;1074;-68
2021/12/02 00:45:34;;;;;;;3.30;1.70;;;;;;;-144.99;100.00;57660.31;346358;28;1199;-68
2021/12/02 00:45:46;;;;;;;3.05;1.63;;;;;;;-144.99;100.00;57660.31;346068;28;1047;-68
2021/12/02 00:46:00;;;;;;;3.08;1.85;;;;;;;-144.99;100.00;57660.31;346304;28;1363;-68
2021/12/02 00:46:16;;;;;;;3.67;2.78;;;;;;;-144.99;100.00;57660.31;347533;28;1043;-68
2021/12/02 00:46:33;;;;;;;5.13;3.90;;;;;;;-144.99;100.00;57660.31;347467;28;1362;-68
2021/12/02 00:46:45;;;;;;;4.80;3.03;;;;;;;-144.99;100.00;57660.31;347669;28;1068;-68
2021/12/02 00:46:57;;;;;;;4.45;3.70;;;;;;;-144.99;100.00;57660.31;347352;28;1222;-68
2021/12/02 00:47:09;;;;;;;4.20;3.80;;;;;;;-144.99;100.00;57660.31;347571;28;1054;-68
2021/12/02 00:47:21;;;;;;;3.85;3.40;;;;;;;-144.99;100.00;57660.31;347612;28;1071;-68
2021/12/02 00:47:36;;;;;;;3.33;1.98;;;;;;;-144.99;100.00;57660.31;347615;28;1284;-68
2021/12/02 00:47:49;;;;;;;3.15;1.83;;;;;;;-144.99;100.00;57660.31;347643;28;872;-68
2021/12/02 00:48:01;;;;;;;2.85;1.83;;;;;;;-144.99;100.00;57660.31;347713;28;1176;-68
2021/12/02 00:48:14;;;;;;;2.38;1.80;;;;;;;-144.99;100.00;57660.31;347586;28;891;-68
2021/12/02 00:48:26;;;;;;;3.63;1.95;;;;;;;-144.99;100.00;57660.31;347697;28;1102;-68
2021/12/02 00:48:39;;;;;;;3.60;1.70;;;;;;;-144.99;100.00;57660.31;347534;28;1229;-68
2021/12/02 00:48:53;;;;;;;3.72;2.00;;;;;;;-144.99;100.00;57660.31;347550;28;1015;-68
2021/12/02 00:49:11;;;;;;;3.40;2.22;;;;;;;-144.99;100.00;57660.31;347527;28;1332;-68
2021/12/02 00:49:23;;;;;;;3.22;1.92;;;;;;;-144.99;100.00;57660.31;346990;28;1807;-68
2021/12/02 00:49:35;;;;;;;3.80;1.77;;;;;;;-144.99;100.00;57660.31;347580;28;1428;-68
2021/12/02 00:49:47;;;;;;;4.95;1.70;;;;;;;-144.99;100.00;57660.31;347691;28;1331;-68
2021/12/02 00:49:59;;;;;;;3.88;1.63;;;;;;;-144.99;100.00;57660.31;346729;28;1271;-68
2021/12/02 00:50:11;;;;;;;2.30;1.67;;;;;;;-144.99;100.00;57660.31;347566;28;1063;-68
2021/12/02 00:50:24;;;;;;;2.35;1.60;;;;;;;-144.99;100.00;57660.31;347763;28;1182;-68
2021/12/02 00:50:38;;;;;;;2.67;1.80;;;;;;;-144.99;100.00;57660.31;346299;28;1031;-68
2021/12/02 00:50:50;;;;;;;2.50;1.80;;;;;;;-144.99;100.00;57660.31;346236;28;1107;-68
2021/12/02 00:51:03;;;;;;;2.40;1.73;;;;;;;-144.99;100.00;57660.31;346972;28;1317;-68
2021/12/02 00:51:17;;;;;;;3.83;1.88;;;;;;;-144.99;100.00;57660.31;347354;28;1225;-68
2021/12/02 00:51:34;;;;;;;5.95;1.80;;;;;;;-144.99;100.00;57660.31;347505;28;1067;-68
2021/12/02 00:51:52;;;;;;;5.85;1.70;;;;;;;-144.99;100.00;57660.31;347535;28;1023;-68
2021/12/02 00:52:05;;;;;;;11.13;1.83;;;;;;;-144.99;100.00;57660.31;347555;28;1163;-68
2021/12/02 00:52:17;;;;;;;10.48;1.80;;;;;;;-144.99;100.00;57660.31;347342;28;1270;-68
2021/12/02 00:52:30;;;;;;;3.25;1.60;;;;;;;-144.99;100.00;57660.31;347540;28;1296;-68
2021/12/02 00:52:44;;;;;;;3.05;1.55;;;;;;;-144.99;100.00;57660.31;347558;28;1047;-68
2021/12/02 00:52:56;;;;;;;4.53;1.65;;;;;;;-144.99;100.00;57660.31;347616;28;1298;-68
2021/12/02 00:53:10;;;;;;;4.72;1.70;;;;;;;-144.99;100.00;57660.31;346524;28;2130;-68
2021/12/02 00:53:22;;;;;;;3.20;1.58;;;;;;;-144.99;100.00;57660.31;346119;28;1059;-68
2021/12/02 00:53:38;;;;;;;2.33;1.48;;;;;;;-144.99;100.00;57660.31;346408;28;1163;-68
2021/12/02 00:53:52;;;;;;;2.47;1.40;;;;;;;-144.99;100.00;57660.31;346096;28;1052;-68
2021/12/02 00:54:08;;;;;;;2.55;1.50;;;;;;;-144.99;100.00;57660.31;347479;28;1413;-68
2021/12/02 00:54:23;;;;;;;2.20;1.50;;;;;;;-144.99;100.00;57660.31;345947;28;1300;-68
2021/12/02 00:54:39;;;;;;;2.60;1.40;;;;;;;-144.99;100.00;57660.31;346127;28;1032;-68
2021/12/02 00:54:54;;;;;;;3.58;1.70;;;;;;;-144.99;100.00;57660.31;346176;28;1020;-68
2021/12/02 00:55:07;;;;;;;3.58;1.73;;;;;;;-144.99;100.00;57660.31;344879;28;2063;-68
2021/12/02 00:55:20;;;;;;;3.20;1.60;;;;;;;-144.99;100.00;57660.31;346410;28;1072;-68
2021/12/02 00:55:37;;;;;;;3.08;1.52;;;;;;;-144.99;100.00;57660.31;346370;28;1287;-68
2021/12/02 00:55:49;;;;;;;3.13;1.60;;;;;;;-144.99;100.00;57660.31;345942;28;1049;-68
2021/12/02 00:56:03;;;;;;;2.83;1.42;;;;;;;-144.99;100.00;57660.31;346047;28;1155;-68
2021/12/02 00:56:16;;;;;;;3.40;1.50;;;;;;;-144.99;100.00;57660.31;346103;28;1300;-68
2021/12/02 00:56:29;;;;;;;4.05;1.45;;;;;;;-144.99;100.00;57660.31;347325;28;1083;-68
2021/12/02 00:56:41;;;;;;;3.10;1.20;;;;;;;-144.99;100.00;57660.31;346929;28;2356;-68
2021/12/02 00:56:54;;;;;;;2.38;1.35;;;;;;;-144.99;100.00;57660.31;347627;28;1671;-68
2021/12/02 00:57:09;;;;;;;2.63;1.55;;;;;;;-144.99;100.00;57660.31;347372;28;1215;-68
2021/12/02 00:57:22;;;;;;;3.28;1.60;;;;;;;-144.99;100.00;57660.31;347614;28;998;-68
2021/12/02 00:57:39;;;;;;;3.38;1.60;;;;;;;-144.99;100.00;57660.31;347390;28;1691;-68
2021/12/02 00:57:51;;;;;;;3.60;1.60;;;;;;;-144.99;100.00;57660.31;347532;28;1075;-68
2021/12/02 00:58:03;;;;;;;3.13;1.40;;;;;;;-144.99;100.00;57660.31;347520;28;1123;-68
2021/12/02 00:58:19;;;;;;;3.13;1.35;;;;;;;-144.99;100.00;57660.31;347432;28;1015;-68
2021/12/02 00:58:32;;;;;;;4.38;1.60;;;;;;;-144.99;100.00;57660.31;347401;28;1071;-68
2021/12/02 00:58:49;;;;;;;3.92;1.60;;;;;;;-144.99;100.00;57660.31;346449;28;1617;-68
2021/12/02 00:59:01;;;;;;;3.33;1.50;;;;;;;-144.99;100.00;57660.31;347502;28;1505;-68
2021/12/02 00:59:13;;;;;;;3.13;1.40;;;;;;;-144.99;100.00;57660.31;347633;28;1035;-68
2021/12/02 00:59:29;;;;;;;2.63;1.30;;;;;;;-144.99;100.00;57660.31;347222;28;1440;-68
2021/12/02 00:59:42;;;;;;;4.05;1.50;;;;;;;-144.99;100.00;57660.31;346456;28;1072;-68
2021/12/02 00:59:57;;;;;;;5.80;1.60;;;;;;;-144.99;100.00;57660.31;346173;28;1776;-68
2021/12/02 01:00:10;;;;;;;4.40;1.65;;;;;;;-144.99;100.00;57660.31;346970;28;1546;-68
2021/12/02 01:00:22;;;;;;;3.55;1.70;;;;;;;-144.99;100.00;57660.31;346562;28;1256;-68
2021/12/02 01:00:34;;;;;;;3.97;1.63;;;;;;;-144.99;100.00;57660.31;347864;28;1059;-68
2021/12/02 01:00:52;;;;;;;4.70;1.55;;;;;;;-144.99;100.00;57660.31;347452;28;1376;-68
2021/12/02 01:01:06;;;;;;;4.00;1.50;;;;;;;-144.99;100.00;57660.31;346121;28;1212;-68
2021/12/02 01:01:22;;;;;;;3.63;1.45;;;;;;;-144.99;100.00;57660.31;346061;28;1382;-68
2021/12/02 01:01:38;;;;;;;3.88;1.45;;;;;;;-144.99;100.00;57660.31;346059;28;1121;-68
2021/12/02 01:01:51;;;;;;;3.75;1.50;;;;;;;-144.99;100.00;57660.31;346311;28;1323;-68
2021/12/02 01:02:04;;;;;;;3.63;1.52;;;;;;;-144.99;100.00;57660.31;347234;28;1262;-67
2021/12/02 01:02:17;;;;;;;3.92;1.60;;;;;;;-144.99;100.00;57660.31;347493;28;1027;-67
2021/12/02 01:02:33;;;;;;;3.10;1.60;;;;;;;-144.99;100.00;57660.31;347574;28;1275;-67
2021/12/02 01:02:48;;;;;;;2.00;1.40;;;;;;;-144.99;100.00;57660.31;347451;28;1249;-67
2021/12/02 01:03:02;;;;;;;2.08;1.40;;;;;;;-144.99;100.00;57660.31;347433;28;1340;-67
2021/12/02 01:03:14;;;;;;;3.63;1.40;;;;;;;-144.99;100.00;57660.31;346956;28;2353;-67
2021/12/02 01:03:36;;;;;;;3.95;1.40;;;;;;;-144.99;100.00;57660.31;347683;28;1034;-68
2021/12/02 01:03:50;;;;;;;3.67;1.50;;;;;;;-144.99;100.00;57660.31;347593;28;1160;-68
2021/12/02 01:04:07;;;;;;;3.88;1.50;;;;;;;-144.99;100.00;57660.31;347701;28;1349;-68
2021/12/02 01:04:23;;;;;;;3.90;1.60;;;;;;;-144.99;100.00;57660.31;347437;28;1103;-68
2021/12/02 01:04:35;;;;;;;3.83;1.67;;;;;;;-144.99;100.00;57660.31;347304;28;920;-67
2021/12/02 01:04:48;;;;;;;2.55;1.50;;;;;;;-144.99;100.00;57660.31;347408;28;918;-67
2021/12/02 01:05:00;;;;;;;2.53;1.58;;;;;;;-144.99;100.00;57660.31;347120;28;1718;-67
2021/12/02 01:05:12;;;;;;;4.00;1.60;;;;;;;-144.99;100.00;57660.31;347923;28;1104;-67
2021/12/02 01:05:25;;;;;;;4.50;1.70;;;;;;;-144.99;100.00;57660.31;347462;28;1286;-67
2021/12/02 01:05:37;;;;;;;5.18;1.70;;;;;;;-144.99;100.00;57660.31;347996;28;1022;-67
2021/12/02 01:05:50;;;;;;;5.32;1.75;;;;;;;-144.99;100.00;57660.31;347490;28;1106;-67
2021/12/02 01:06:05;;;;;;;4.15;1.70;;;;;;;-144.99;100.00;57660.31;347667;28;2335;-68
2021/12/02 01:06:18;;;;;;;3.88;1.60;;;;;;;-144.99;100.00;57660.31;346828;28;1892;-68
2021/12/02 01:06:30;;;;;;;3.25;1.40;;;;;;;-144.99;100.00;57660.31;347091;28;1669;-68
2021/12/02 01:06:42;;;;;;;2.97;1.48;;;;;;;-144.99;100.00;57660.31;347625;28;1137;-68
2021/12/02 01:06:55;;;;;;;3.80;1.55;;;;;;;-144.99;100.00;57660.31;347060;28;1564;-68
2021/12/02 01:07:08;;;;;;;4.57;1.58;;;;;;;-144.99;100.00;57660.31;346242;28;1039;-68
2021/12/02 01:07:21;;;;;;;4.47;1.77;;;;;;;-144.99;100.00;57660.31;346362;28;1275;-68
2021/12/02 01:07:33;;;;;;;4.47;1.75;;;;;;;-144.99;100.00;57660.31;346362;28;1214;-67
2021/12/02 01:07:45;;;;;;;3.45;1.63;;;;;;;-144.99;100.00;57660.31;346215;28;2230;-67
2021/12/02 01:08:01;;;;;;;4.05;1.70;;;;;;;-144.99;100.00;57660.31;348457;28;1943;-67
2021/12/02 01:08:13;;;;;;;4.97;1.70;;;;;;;-144.99;100.00;57660.31;346205;28;1035;-67
2021/12/02 01:08:27;;;;;;;4.88;1.60;;;;;;;-144.99;100.00;57660.31;346288;28;1042;-67